createdAt,value
2023-03-06T00:00:49.446Z,10.85
2023-03-06T00:03:20.387Z,11.60
2023-03-06T00:05:52.399Z,11.40
2023-03-06T00:08:25.661Z,11.23
2023-03-06T00:10:54.776Z,11.35
2023-03-06T00:13:24.939Z,10.50
2023-03-06T00:16:00.943Z,10.82
2023-03-06T00:18:31.253Z,10.88
2023-03-06T00:21:02.838Z,10.80
2023-03-06T00:23:33.842Z,10.43
2023-03-06T00:26:02.383Z,10.87
2023-03-06T00:28:32.825Z,11.15
2023-03-06T00:31:04.395Z,11.65
2023-03-06T00:33:35.555Z,11.52
2023-03-06T00:36:10.917Z,10.88
2023-03-06T00:38:39.767Z,12.15
2023-03-06T00:41:09.289Z,11.40
2023-03-06T00:43:39.210Z,10.95
2023-03-06T00:46:08.008Z,11.30
2023-03-06T00:48:37.639Z,11.35
2023-03-06T00:51:13.884Z,11.43
2023-03-06T00:53:42.894Z,10.65
2023-03-06T00:56:14.188Z,10.85
2023-03-06T00:58:43.952Z,10.68
2023-03-06T01:01:13.164Z,10.98
2023-03-06T01:03:42.886Z,10.43
2023-03-06T01:06:16.029Z,10.60
2023-03-06T01:08:46.606Z,10.75
2023-03-06T01:11:15.440Z,10.77
2023-03-06T01:13:45.008Z,10.82
2023-03-06T01:16:21.275Z,10.00
2023-03-06T01:18:50.774Z,10.30
2023-03-06T01:21:21.913Z,9.55
2023-03-06T01:23:50.096Z,10.05
2023-03-06T01:26:18.631Z,9.77
2023-03-06T01:28:47.416Z,9.40
2023-03-06T01:31:18.384Z,9.07
2023-03-06T01:33:46.766Z,9.63
2023-03-06T01:36:15.078Z,9.23
2023-03-06T01:38:47.058Z,9.38
2023-03-06T01:41:21.788Z,8.93
2023-03-06T01:43:50.601Z,9.38
2023-03-06T01:46:33.991Z,9.50
2023-03-06T01:49:05.721Z,8.95
2023-03-06T01:51:43.152Z,8.98
2023-03-06T01:54:16.523Z,8.65
2023-03-06T01:56:49.369Z,8.88
2023-03-06T01:59:18.567Z,9.10
2023-03-06T02:01:50.940Z,9.60
2023-03-06T02:04:24.054Z,9.68
2023-03-06T02:06:53.506Z,9.57
2023-03-06T02:09:29.848Z,9.20
2023-03-06T02:12:00.662Z,8.50
2023-03-06T02:14:30.092Z,8.32
2023-03-06T02:17:00.027Z,8.90
2023-03-06T02:19:39.088Z,8.40
2023-03-06T02:22:09.014Z,8.07
2023-03-06T02:24:49.231Z,8.35
2023-03-06T02:27:23.986Z,8.60
2023-03-06T02:29:53.928Z,9.02
2023-03-06T02:32:24.197Z,9.48
2023-03-06T02:34:59.590Z,9.48
2023-03-06T02:37:30.713Z,9.30
2023-03-06T02:40:12.459Z,8.35
2023-03-06T02:42:47.693Z,8.60
2023-03-06T02:45:21.569Z,8.27
2023-03-06T02:47:52.015Z,8.23
2023-03-06T02:50:23.938Z,8.27
2023-03-06T02:52:54.167Z,8.13
2023-03-06T02:55:22.998Z,8.80
2023-03-06T02:57:55.930Z,9.00
2023-03-06T03:00:27.300Z,8.48
2023-03-06T03:02:55.802Z,8.75
2023-03-06T03:05:29.488Z,8.52
2023-03-06T03:07:58.185Z,8.70
2023-03-06T03:10:28.285Z,8.23
2023-03-06T03:12:59.421Z,8.18
2023-03-06T03:15:30.900Z,8.73
2023-03-06T03:18:00.584Z,8.50
2023-03-06T03:20:29.079Z,8.65
2023-03-06T03:22:58.398Z,9.00
2023-03-06T03:25:27.598Z,8.70
2023-03-06T03:28:00.431Z,8.88
2023-03-06T03:30:29.328Z,8.80
2023-03-06T03:32:58.297Z,9.57
2023-03-06T03:35:28.008Z,8.70
2023-03-06T03:37:56.415Z,8.80
2023-03-06T03:40:26.827Z,8.70
2023-03-06T03:42:57.106Z,9.38
2023-03-06T03:45:27.717Z,8.77
2023-03-06T03:47:56.736Z,9.35
2023-03-06T03:50:28.391Z,8.75
2023-03-06T03:52:57.838Z,8.70
2023-03-06T03:55:27.914Z,8.85
2023-03-06T03:58:00.268Z,9.13
2023-03-06T04:00:31.574Z,9.35
2023-03-06T04:03:00.257Z,9.25
2023-03-06T04:05:31.321Z,9.00
2023-03-06T04:08:01.254Z,8.90
2023-03-06T04:10:32.235Z,9.02
2023-03-06T04:13:03.582Z,8.90
2023-03-06T04:15:37.796Z,9.40
2023-03-06T04:18:06.766Z,9.43
2023-03-06T04:20:38.190Z,9.07
2023-03-06T04:23:08.413Z,9.50
2023-03-06T04:25:36.632Z,8.63
2023-03-06T04:28:06.207Z,9.02
2023-03-06T04:30:38.774Z,9.25
2023-03-06T04:33:08.627Z,9.05
2023-03-06T04:35:39.266Z,8.55
2023-03-06T04:38:10.358Z,8.98
2023-03-06T04:40:40.685Z,8.73
2023-03-06T04:43:15.030Z,8.77
2023-03-06T04:45:47.849Z,8.85
2023-03-06T04:48:19.759Z,8.82
2023-03-06T04:50:48.397Z,9.05
2023-03-06T04:53:23.690Z,9.15
2023-03-06T04:55:52.894Z,8.90
2023-03-06T04:58:26.886Z,9.35
2023-03-06T05:00:58.240Z,9.95
2023-03-06T05:03:27.838Z,9.77
2023-03-06T05:05:56.557Z,9.02
2023-03-06T05:08:26.763Z,9.18
2023-03-06T05:11:03.151Z,10.00
2023-03-06T05:13:31.399Z,9.82
2023-03-06T05:16:04.764Z,10.90
2023-03-06T05:18:35.265Z,11.23
2023-03-06T05:21:10.722Z,11.73
2023-03-06T05:23:42.265Z,11.77
2023-03-06T05:26:15.039Z,10.98
2023-03-06T05:28:43.286Z,11.15
2023-03-06T05:31:13.997Z,11.65
2023-03-06T05:33:42.770Z,11.05
2023-03-06T05:36:11.714Z,10.63
2023-03-06T05:38:41.346Z,11.48
2023-03-06T05:41:13.017Z,12.18
2023-03-06T05:43:42.600Z,13.38
2023-03-06T05:46:12.846Z,14.23
2023-03-06T05:48:46.778Z,17.10
2023-03-06T05:51:17.454Z,17.85
2023-03-06T05:53:46.121Z,13.45
2023-03-06T05:56:15.177Z,14.27
2023-03-06T05:58:46.557Z,15.63
2023-03-06T06:01:18.990Z,15.43
2023-03-06T06:03:54.039Z,15.98
2023-03-06T06:06:24.171Z,20.85
2023-03-06T06:08:53.016Z,18.58
2023-03-06T06:11:21.887Z,17.52
2023-03-06T06:13:53.281Z,21.77
2023-03-06T06:16:22.798Z,28.55
2023-03-06T06:19:02.946Z,22.83
2023-03-06T06:21:36.368Z,19.23
2023-03-06T06:24:07.329Z,17.95
2023-03-06T06:26:36.134Z,17.02
2023-03-06T06:29:05.679Z,17.48
2023-03-06T06:31:39.443Z,17.23
2023-03-06T06:34:12.551Z,17.50
2023-03-06T06:36:41.982Z,16.90
2023-03-06T06:39:16.751Z,18.70
2023-03-06T06:42:02.394Z,20.08
2023-03-06T06:44:38.189Z,20.17
2023-03-06T06:47:28.920Z,18.67
2023-03-06T06:49:58.816Z,18.17
2023-03-06T06:52:31.197Z,18.13
2023-03-06T06:54:59.692Z,17.48
2023-03-06T06:57:28.067Z,17.50
2023-03-06T06:59:59.768Z,17.85
2023-03-06T07:02:29.693Z,19.50
2023-03-06T07:05:04.191Z,18.40
2023-03-06T07:07:37.197Z,19.02
2023-03-06T07:12:37.895Z,17.90
2023-03-06T07:15:08.243Z,17.98
2023-03-06T07:17:39.621Z,17.92
2023-03-06T07:20:12.011Z,19.27
2023-03-06T07:22:50.943Z,18.48
2023-03-06T07:25:22.467Z,17.50
2023-03-06T07:27:54.497Z,17.58
2023-03-06T07:30:24.352Z,17.13
2023-03-06T07:33:00.323Z,15.98
2023-03-06T07:35:28.886Z,16.50
2023-03-06T07:37:57.605Z,15.85
2023-03-06T07:40:27.196Z,15.13
2023-03-06T07:43:06.016Z,15.20
2023-03-06T07:45:41.816Z,14.95
2023-03-06T07:48:11.316Z,15.13
2023-03-06T07:50:39.825Z,14.70
2023-03-06T07:53:10.118Z,14.73
2023-03-06T07:55:42.040Z,14.65
2023-03-06T07:58:10.822Z,15.05
2023-03-06T08:00:39.406Z,14.13
2023-03-06T08:03:08.050Z,15.20
2023-03-06T08:05:39.117Z,14.85
2023-03-06T08:08:07.634Z,14.90
2023-03-06T08:10:36.156Z,15.18
2023-03-06T08:13:05.600Z,16.15
2023-03-06T08:15:34.019Z,14.70
2023-03-06T08:18:02.348Z,15.10
2023-03-06T08:20:30.927Z,14.73
2023-03-06T08:23:00.650Z,14.57
2023-03-06T08:25:31.207Z,14.50
2023-03-06T08:28:00.859Z,13.95
2023-03-06T08:30:29.258Z,13.98
2023-03-06T08:32:57.488Z,13.80
2023-03-06T08:35:25.963Z,13.88
2023-03-06T08:37:56.326Z,13.90
2023-03-06T08:40:30.468Z,14.02
2023-03-06T08:43:00.222Z,13.85
2023-03-06T08:45:28.680Z,13.18
2023-03-06T08:47:57.461Z,13.48
2023-03-06T08:50:26.152Z,13.23
2023-03-06T08:52:56.109Z,13.75
2023-03-06T08:55:28.204Z,14.52
2023-03-06T08:57:57.436Z,14.05
2023-03-06T09:00:30.353Z,13.35
2023-03-06T09:03:01.699Z,14.75
2023-03-06T09:05:30.763Z,14.60
2023-03-06T09:07:59.170Z,13.60
2023-03-06T09:10:29.618Z,13.82
2023-03-06T09:12:59.302Z,13.60
2023-03-06T09:15:29.625Z,13.95
2023-03-06T09:17:59.987Z,13.55
2023-03-06T09:20:28.736Z,13.45
2023-03-06T09:22:57.156Z,14.00
2023-03-06T09:25:31.931Z,15.43
2023-03-06T09:28:10.943Z,13.57
2023-03-06T09:30:42.202Z,14.40
2023-03-06T09:33:10.533Z,14.13
2023-03-06T09:35:45.715Z,14.50
2023-03-06T09:38:14.625Z,14.52
2023-03-06T09:41:58.969Z,13.52
2023-03-06T09:44:32.382Z,13.18
2023-03-06T09:47:29.768Z,12.65
2023-03-06T09:50:11.811Z,12.00
2023-03-06T09:52:47.964Z,13.43
2023-03-06T09:55:20.530Z,10.80
2023-03-06T09:57:56.086Z,10.38
2023-03-06T10:00:32.138Z,11.25
2023-03-06T10:03:14.836Z,11.27
2023-03-06T10:05:46.471Z,11.65
2023-03-06T10:08:27.864Z,11.82
2023-03-06T10:11:03.923Z,11.00
2023-03-06T10:13:42.712Z,11.13
2023-03-06T10:16:23.963Z,11.45
2023-03-06T10:18:54.514Z,11.48
2023-03-06T10:21:39.085Z,10.85
2023-03-06T10:24:21.195Z,10.75
2023-03-06T10:26:56.540Z,10.27
2023-03-06T10:29:56.367Z,10.95
2023-03-06T10:32:47.443Z,10.45
2023-03-06T10:35:20.660Z,11.10
2023-03-06T10:37:49.682Z,10.68
2023-03-06T10:40:21.006Z,10.77
2023-03-06T10:42:58.700Z,10.27
2023-03-06T10:45:48.396Z,10.00
2023-03-06T10:48:24.710Z,9.82
2023-03-06T10:50:54.948Z,10.38
2023-03-06T10:53:29.233Z,10.55
2023-03-06T10:56:00.491Z,11.05
2023-03-06T10:58:31.982Z,10.85
2023-03-06T11:01:09.250Z,10.98
2023-03-06T11:03:39.869Z,10.98
2023-03-06T11:06:12.996Z,11.30
2023-03-06T11:08:43.692Z,13.98
2023-03-06T11:11:18.504Z,13.93
2023-03-06T11:14:00.102Z,11.23
2023-03-06T11:16:31.516Z,11.75
2023-03-06T11:19:04.333Z,11.88
2023-03-06T11:21:36.036Z,12.25
2023-03-06T11:26:42.508Z,12.10
2023-03-06T11:29:25.862Z,12.02
2023-03-06T11:31:58.355Z,11.65
2023-03-06T11:34:39.836Z,11.18
2023-03-06T11:37:12.144Z,11.55
2023-03-06T11:39:53.879Z,11.75
2023-03-06T11:42:29.846Z,11.45
2023-03-06T11:45:10.392Z,11.45
2023-03-06T11:47:42.307Z,11.25
2023-03-06T11:52:54.232Z,10.05
2023-03-06T11:55:36.335Z,11.10
2023-03-06T12:00:53.564Z,11.18
2023-03-06T12:04:00.542Z,11.20
2023-03-06T12:06:39.602Z,10.82
2023-03-06T12:09:22.469Z,11.13
2023-03-06T12:12:00.384Z,11.95
2023-03-06T12:14:43.661Z,12.18
2023-03-06T12:17:23.745Z,11.73
2023-03-06T12:20:11.576Z,11.23
2023-03-06T12:22:58.223Z,11.90
2023-03-06T12:25:37.758Z,11.35
2023-03-06T12:28:29.086Z,12.05
2023-03-06T12:31:11.191Z,11.33
2023-03-06T12:33:52.407Z,11.18
2023-03-06T12:36:41.275Z,11.32
2023-03-06T12:39:22.114Z,11.60
2023-03-06T12:42:06.744Z,11.13
2023-03-06T12:45:09.677Z,11.68
2023-03-06T12:47:43.675Z,12.80
2023-03-06T12:50:23.484Z,12.18
2023-03-06T12:52:53.754Z,11.48
2023-03-06T12:55:26.052Z,11.32
2023-03-06T12:57:55.684Z,12.32
2023-03-06T13:01:04.222Z,13.07
2023-03-06T13:03:55.484Z,13.63
2023-03-06T13:06:49.732Z,13.25
2023-03-06T13:09:32.706Z,12.55
2023-03-06T13:14:57.791Z,13.35
2023-03-06T13:17:34.011Z,13.80
2023-03-06T13:20:26.642Z,13.57
2023-03-06T13:22:55.805Z,14.00
2023-03-06T13:25:48.909Z,13.70
2023-03-06T13:28:41.615Z,13.48
2023-03-06T13:31:24.941Z,13.40
2023-03-06T13:34:02.177Z,13.07
2023-03-06T13:36:34.055Z,13.13
2023-03-06T13:41:57.569Z,12.13
2023-03-06T13:44:47.722Z,12.45
2023-03-06T13:47:35.662Z,12.45
2023-03-06T13:50:32.065Z,13.50
2023-03-06T13:53:37.424Z,13.05
2023-03-06T13:56:27.707Z,13.05
2023-03-06T13:59:20.758Z,12.73
2023-03-06T14:02:03.297Z,12.90
2023-03-06T14:04:44.052Z,13.10
2023-03-06T14:07:23.803Z,13.13
2023-03-06T14:10:03.347Z,13.30
2023-03-06T14:12:35.418Z,12.98
2023-03-06T14:15:14.629Z,13.40
2023-03-06T14:17:53.828Z,12.50
2023-03-06T14:20:34.599Z,13.82
2023-03-06T14:23:21.254Z,13.80
2023-03-06T14:25:56.146Z,13.57
2023-03-06T14:28:27.326Z,13.05
2023-03-06T14:30:58.593Z,14.50
2023-03-06T14:33:38.189Z,14.07
2023-03-06T14:36:09.380Z,13.32
2023-03-06T14:38:44.822Z,13.60
2023-03-06T14:41:15.450Z,13.77
2023-03-06T14:43:46.111Z,13.35
2023-03-06T14:46:21.604Z,13.25
2023-03-06T14:49:02.333Z,13.75
2023-03-06T14:51:41.841Z,14.32
2023-03-06T14:54:18.858Z,14.75
2023-03-06T14:56:49.584Z,15.20
2023-03-06T14:59:24.062Z,15.32
2023-03-06T15:01:58.130Z,14.35
2023-03-06T15:04:35.360Z,14.52
2023-03-06T15:07:07.108Z,14.07
2023-03-06T15:12:08.028Z,13.90
2023-03-06T15:14:38.875Z,14.27
2023-03-06T15:17:22.453Z,14.65
2023-03-06T15:19:54.865Z,13.55
2023-03-06T15:22:32.053Z,14.10
2023-03-06T15:25:26.777Z,14.57
2023-03-06T15:28:00.250Z,14.65
2023-03-06T15:30:40.867Z,15.13
2023-03-06T15:33:26.018Z,14.98
2023-03-06T15:35:57.454Z,14.57
2023-03-06T15:38:33.745Z,15.10
2023-03-06T15:41:04.186Z,16.13
2023-03-06T15:43:38.107Z,16.58
2023-03-06T15:46:09.251Z,15.90
2023-03-06T15:48:38.045Z,15.57
2023-03-06T15:51:08.623Z,16.48
2023-03-06T15:53:42.792Z,15.43
2023-03-06T15:56:13.803Z,15.65
2023-03-06T15:58:43.818Z,15.30
2023-03-06T16:01:17.087Z,14.75
2023-03-06T16:03:46.224Z,15.70
2023-03-06T16:06:20.280Z,16.05
2023-03-06T16:08:51.552Z,16.30
2023-03-06T16:11:41.859Z,14.55
2023-03-06T16:14:24.146Z,16.20
2023-03-06T16:16:55.129Z,16.83
2023-03-06T16:19:27.571Z,17.13
2023-03-06T16:21:59.182Z,16.13
2023-03-06T16:24:30.557Z,17.38
2023-03-06T16:27:02.558Z,16.35
2023-03-06T16:32:03.212Z,17.75
2023-03-06T16:34:32.444Z,18.13
2023-03-06T16:37:05.723Z,19.15
2023-03-06T16:39:42.591Z,19.85
2023-03-06T16:42:13.042Z,19.67
2023-03-06T16:44:41.356Z,18.20
2023-03-06T16:47:21.149Z,19.73
2023-03-06T16:49:52.079Z,18.58
2023-03-06T16:52:20.382Z,18.90
2023-03-06T16:54:51.584Z,18.58
2023-03-06T16:57:24.029Z,24.55
2023-03-06T16:59:53.303Z,17.98
2023-03-06T17:02:22.735Z,19.00
2023-03-06T17:04:51.849Z,20.50
2023-03-06T17:07:21.981Z,20.38
2023-03-06T17:09:52.533Z,22.50
2023-03-06T17:12:23.862Z,22.10
2023-03-06T17:14:54.410Z,29.08
2023-03-06T17:17:22.878Z,24.80
2023-03-06T17:19:51.958Z,20.23
2023-03-06T17:22:23.052Z,23.90
2023-03-06T17:24:53.426Z,21.08
2023-03-06T17:27:24.982Z,20.80
2023-03-06T17:29:54.236Z,23.05
2023-03-06T17:32:28.404Z,24.08
2023-03-06T17:34:58.908Z,25.60
2023-03-06T17:37:28.260Z,24.45
2023-03-06T17:40:01.190Z,26.05
2023-03-06T17:42:29.891Z,23.30
2023-03-06T17:45:00.187Z,23.00
2023-03-06T17:47:28.705Z,24.13
2023-03-06T17:49:58.536Z,24.05
2023-03-06T17:52:27.618Z,24.27
2023-03-06T17:54:58.906Z,24.25
2023-03-06T17:57:29.457Z,22.52
2023-03-06T17:59:58.415Z,23.60
2023-03-06T18:02:27.206Z,21.98
2023-03-06T18:04:58.169Z,20.70
2023-03-06T18:07:27.436Z,20.25
2023-03-06T18:09:59.650Z,20.33
2023-03-06T18:12:28.828Z,20.98
2023-03-06T18:14:57.711Z,19.27
2023-03-06T18:17:29.070Z,20.00
2023-03-06T18:19:59.230Z,20.13
2023-03-06T18:22:29.152Z,21.13
2023-03-06T18:24:59.568Z,20.70
2023-03-06T18:27:30.855Z,21.80
2023-03-06T18:29:59.259Z,22.45
2023-03-06T18:32:29.750Z,22.65
2023-03-06T18:35:00.119Z,22.52
2023-03-06T18:37:29.391Z,21.83
2023-03-06T18:39:59.256Z,22.73
2023-03-06T18:42:29.469Z,23.17
2023-03-06T18:44:57.672Z,21.75
2023-03-06T18:47:26.761Z,21.27
2023-03-06T18:49:58.460Z,22.60
2023-03-06T18:52:28.652Z,22.77
2023-03-06T18:55:00.110Z,23.33
2023-03-06T18:57:30.326Z,25.27
2023-03-06T18:59:59.207Z,24.52
2023-03-06T19:02:35.035Z,25.67
2023-03-06T19:05:04.690Z,27.13
2023-03-06T19:07:34.190Z,27.67
2023-03-06T19:10:06.128Z,26.30
2023-03-06T19:12:35.591Z,26.95
2023-03-06T19:15:05.709Z,29.75
2023-03-06T19:17:35.934Z,25.83
2023-03-06T19:20:06.173Z,27.98
2023-03-06T19:22:36.035Z,26.02
2023-03-06T19:25:07.109Z,28.98
2023-03-06T19:27:37.985Z,27.75
2023-03-06T19:30:08.391Z,27.45
2023-03-06T19:32:37.614Z,27.42
2023-03-06T19:35:12.429Z,27.17
2023-03-06T19:37:41.874Z,27.50
2023-03-06T19:40:14.012Z,26.75
2023-03-06T19:42:43.824Z,25.95
2023-03-06T19:45:13.048Z,25.83
2023-03-06T19:47:41.625Z,26.30
2023-03-06T19:50:11.854Z,26.50
2023-03-06T19:52:40.148Z,26.55
2023-03-06T19:55:10.214Z,26.33
2023-03-06T19:57:40.857Z,26.33
2023-03-06T20:00:11.515Z,25.60
2023-03-06T20:05:10.289Z,28.83
2023-03-06T20:07:38.479Z,28.95
2023-03-06T20:10:07.451Z,29.50
2023-03-06T20:12:36.716Z,30.67
2023-03-06T20:15:08.323Z,29.52
2023-03-06T20:17:40.818Z,30.98
2023-03-06T20:20:12.112Z,31.15
2023-03-06T20:22:40.789Z,30.65
2023-03-06T20:25:10.319Z,31.77
2023-03-06T20:27:39.200Z,30.92
2023-03-06T20:30:11.516Z,32.53
2023-03-06T20:32:40.051Z,34.92
2023-03-06T20:35:09.330Z,36.08
2023-03-06T20:37:38.156Z,48.85
2023-03-06T20:40:09.494Z,45.72
2023-03-06T20:42:38.439Z,44.90
2023-03-06T20:45:09.782Z,46.88
2023-03-06T20:47:37.910Z,37.78
2023-03-06T20:50:09.230Z,35.30
2023-03-06T20:52:38.093Z,32.42
2023-03-06T20:55:07.815Z,31.92
2023-03-06T20:57:38.967Z,32.20
2023-03-06T21:00:11.886Z,32.65
2023-03-06T21:02:40.622Z,31.23
2023-03-06T21:05:12.730Z,32.65
2023-03-06T21:07:42.954Z,34.58
2023-03-06T21:10:14.634Z,34.95
2023-03-06T21:12:43.953Z,34.25
2023-03-06T21:15:14.974Z,33.53
2023-03-06T21:17:45.167Z,34.10
2023-03-06T21:20:27.828Z,41.22
2023-03-06T21:22:59.018Z,44.50
2023-03-06T21:25:30.802Z,57.58
2023-03-06T21:28:00.406Z,52.28
2023-03-06T21:30:35.385Z,44.22
2023-03-06T21:33:10.627Z,41.35
2023-03-06T21:35:47.428Z,41.97
2023-03-06T21:38:18.175Z,43.10
2023-03-06T21:40:47.804Z,40.53
2023-03-06T21:43:17.643Z,41.05
2023-03-06T21:45:49.345Z,41.10
2023-03-06T21:48:19.062Z,36.28
2023-03-06T21:50:48.923Z,34.63
2023-03-06T21:53:21.348Z,35.45
2023-03-06T21:55:51.844Z,35.15
2023-03-06T21:58:24.989Z,33.97
2023-03-06T22:00:55.616Z,34.90
2023-03-06T22:03:26.365Z,35.20
2023-03-06T22:05:57.282Z,35.20
2023-03-06T22:08:28.384Z,35.55
2023-03-06T22:10:59.942Z,35.10
2023-03-06T22:13:29.858Z,35.38
2023-03-06T22:16:02.474Z,34.50
2023-03-06T22:18:32.026Z,34.20
2023-03-06T22:21:02.197Z,34.25
2023-03-06T22:23:32.582Z,33.80
2023-03-06T22:26:03.789Z,33.58
2023-03-06T22:28:34.774Z,33.25
2023-03-06T22:31:12.004Z,34.53
2023-03-06T22:33:43.281Z,35.92
2023-03-06T22:36:16.016Z,35.38
2023-03-06T22:38:46.628Z,36.50
2023-03-06T22:41:18.128Z,36.63
2023-03-06T22:43:47.633Z,37.00
2023-03-06T22:46:18.901Z,38.40
2023-03-06T22:48:49.998Z,37.88
2023-03-06T22:51:24.115Z,36.92
2023-03-06T22:53:56.588Z,39.03
2023-03-06T22:56:31.445Z,40.95
2023-03-06T22:59:01.697Z,41.60
2023-03-06T23:01:34.973Z,40.38
2023-03-06T23:04:08.549Z,38.78
2023-03-06T23:06:41.954Z,40.17
2023-03-06T23:09:21.516Z,40.40
2023-03-06T23:14:25.201Z,41.05
2023-03-06T23:16:56.945Z,42.00
2023-03-06T23:19:31.314Z,42.83
2023-03-06T23:22:01.840Z,40.55
2023-03-06T23:24:35.931Z,37.10
2023-03-06T23:27:04.939Z,37.38
2023-03-06T23:29:37.353Z,37.72
2023-03-06T23:32:10.430Z,38.13
2023-03-06T23:34:40.352Z,36.50
2023-03-06T23:37:12.675Z,35.80
2023-03-06T23:39:42.911Z,37.67
2023-03-06T23:42:12.941Z,36.70
2023-03-06T23:44:43.473Z,38.08
2023-03-06T23:47:13.154Z,39.28
2023-03-06T23:49:44.805Z,38.80
2023-03-06T23:52:13.683Z,39.50
2023-03-06T23:54:42.036Z,39.97
2023-03-06T23:57:12.033Z,40.00
2023-03-06T23:59:41.308Z,40.58
